sensor_id;sensor_type;location;lat;lon;timestamp;pressure;altitude;pressure_sealevel;temperature;humidity
50652;BME280;61429;52.086;5.240;2022-12-24T06:26:11;100737.0;;;10.88;89.15
50652;BME280;61429;52.086;5.240;2022-12-24T06:27:48;100740.0;;;10.84;89.45
50652;BME280;61429;52.086;5.240;2022-12-24T06:29:24;100741.0;;;10.77;89.81
50652;BME280;61429;52.086;5.240;2022-12-24T06:32:37;100750.0;;;10.68;90.54
50652;BME280;61429;52.086;5.240;2022-12-24T06:34:14;100755.0;;;10.84;89.86
50652;BME280;61429;52.086;5.240;2022-12-24T06:37:26;100755.0;;;10.91;89.68
50652;BME280;61429;52.086;5.240;2022-12-24T06:39:02;100751.0;;;10.93;89.39
50652;BME280;61429;52.086;5.240;2022-12-24T06:40:39;100752.0;;;10.9;89.51
50652;BME280;61429;52.086;5.240;2022-12-24T06:42:16;100762.0;;;10.96;89.41
50652;BME280;61429;52.086;5.240;2022-12-24T06:43:53;100760.0;;;10.88;89.96
50652;BME280;61429;52.086;5.240;2022-12-24T06:47:05;100759.0;;;10.86;90.31
50652;BME280;61429;52.086;5.240;2022-12-24T06:48:42;100760.0;;;10.9;90.04
50652;BME280;61429;52.086;5.240;2022-12-24T06:50:18;100766.0;;;10.89;89.91
50652;BME280;61429;52.086;5.240;2022-12-24T06:53:31;100772.0;;;10.85;90.32
50652;BME280;61429;52.086;5.240;2022-12-24T06:55:09;100767.0;;;10.94;89.73
50652;BME280;61429;52.086;5.240;2022-12-24T06:56:45;100755.0;;;10.96;89.56
50652;BME280;61429;52.086;5.240;2022-12-24T06:59:58;100759.0;;;10.85;89.54
50652;BME280;61429;52.086;5.240;2022-12-24T07:01:35;100768.0;;;11.04;89.24
50652;BME280;61429;52.086;5.240;2022-12-24T07:03:11;100767.0;;;10.96;89.61
50652;BME280;61429;52.086;5.240;2022-12-24T07:04:47;100772.0;;;10.71;89.73
50652;BME280;61429;52.086;5.240;2022-12-24T07:08:02;100777.0;;;10.97;89.18
50652;BME280;61429;52.086;5.240;2022-12-24T07:09:40;100780.0;;;11.05;88.26
50652;BME280;61429;52.086;5.240;2022-12-24T07:11:17;100777.0;;;11.08;88.26
50652;BME280;61429;52.086;5.240;2022-12-24T07:14:29;100778.0;;;11.03;88.43
50652;BME280;61429;52.086;5.240;2022-12-24T07:16:06;100782.0;;;10.79;89.17
50652;BME280;61429;52.086;5.240;2022-12-24T07:17:42;100780.0;;;10.71;89.1
50652;BME280;61429;52.086;5.240;2022-12-24T07:20:55;100793.0;;;10.66;89.55
50652;BME280;61429;52.086;5.240;2022-12-24T07:22:32;100789.0;;;10.82;88.29
50652;BME280;61429;52.086;5.240;2022-12-24T07:24:08;100793.0;;;10.93;87.89
50652;BME280;61429;52.086;5.240;2022-12-24T07:27:21;100793.0;;;10.96;87.57
50652;BME280;61429;52.086;5.240;2022-12-24T07:28:58;100803.0;;;10.77;87.96
50652;BME280;61429;52.086;5.240;2022-12-24T07:30:34;100806.0;;;10.74;88.47
50652;BME280;61429;52.086;5.240;2022-12-24T07:32:10;100819.0;;;10.75;88.33
50652;BME280;61429;52.086;5.240;2022-12-24T07:35:23;100820.0;;;10.86;88.09
50652;BME280;61429;52.086;5.240;2022-12-24T07:36:59;100822.0;;;10.83;87.89
50652;BME280;61429;52.086;5.240;2022-12-24T07:38:36;100825.0;;;10.72;88.05
50652;BME280;61429;52.086;5.240;2022-12-24T07:41:49;100834.0;;;10.89;87.58
50652;BME280;61429;52.086;5.240;2022-12-24T07:43:26;100836.0;;;10.89;87.01
50652;BME280;61429;52.086;5.240;2022-12-24T07:45:03;100835.0;;;10.84;87.51
50652;BME280;61429;52.086;5.240;2022-12-24T07:46:40;100840.0;;;10.75;87.71
50652;BME280;61429;52.086;5.240;2022-12-24T07:49:53;100843.0;;;10.78;87.25
50652;BME280;61429;52.086;5.240;2022-12-24T07:51:30;100853.0;;;10.7;88.04
50652;BME280;61429;52.086;5.240;2022-12-24T07:53:07;100861.0;;;10.78;87.63
50652;BME280;61429;52.086;5.240;2022-12-24T07:56:19;100858.0;;;10.59;88.52
50652;BME280;61429;52.086;5.240;2022-12-24T07:57:55;100869.0;;;10.52;88.61
50652;BME280;61429;52.086;5.240;2022-12-24T07:59:31;100880.0;;;10.71;88.02
50652;BME280;61429;52.086;5.240;2022-12-24T08:02:47;100875.0;;;10.68;88.23
50652;BME280;61429;52.086;5.240;2022-12-24T08:04:23;100875.0;;;10.47;88.88
50652;BME280;61429;52.086;5.240;2022-12-24T08:05:59;100880.0;;;10.56;88.85
50652;BME280;61429;52.086;5.240;2022-12-24T08:07:36;100883.0;;;10.55;88.6
50652;BME280;61429;52.086;5.240;2022-12-24T08:10:49;100890.0;;;10.74;87.91
50652;BME280;61429;52.086;5.240;2022-12-24T08:12:26;100889.0;;;10.74;87.82
50652;BME280;61429;52.086;5.240;2022-12-24T08:14:02;100893.0;;;10.85;87.56
50652;BME280;61429;52.086;5.240;2022-12-24T08:17:14;100902.0;;;10.93;87.29
50652;BME280;61429;52.086;5.240;2022-12-24T08:18:51;100903.0;;;10.88;87.2
50652;BME280;61429;52.086;5.240;2022-12-24T08:20:27;100906.0;;;10.9;86.89
50652;BME280;61429;52.086;5.240;2022-12-24T08:23:39;100912.0;;;10.99;86.75
50652;BME280;61429;52.086;5.240;2022-12-24T08:25:16;100910.0;;;10.93;86.96
50652;BME280;61429;52.086;5.240;2022-12-24T08:26:52;100909.0;;;10.9;86.95
50652;BME280;61429;52.086;5.240;2022-12-24T08:28:29;100917.0;;;11.04;86.82
50652;BME280;61429;52.086;5.240;2022-12-24T08:31:43;100918.0;;;11.03;86.55
50652;BME280;61429;52.086;5.240;2022-12-24T08:33:19;100923.0;;;11.07;86.9
50652;BME280;61429;52.086;5.240;2022-12-24T08:36:31;100922.0;;;11.07;86.79
50652;BME280;61429;52.086;5.240;2022-12-24T08:38:08;100923.0;;;11.04;86.55
50652;BME280;61429;52.086;5.240;2022-12-24T08:39:44;100930.0;;;11.13;86.82
50652;BME280;61429;52.086;5.240;2022-12-24T08:41:20;100930.0;;;11.25;86.35
50652;BME280;61429;52.086;5.240;2022-12-24T08:44:32;100931.0;;;11.26;86.33
50652;BME280;61429;52.086;5.240;2022-12-24T08:46:09;100934.0;;;11.2;86.75
50652;BME280;61429;52.086;5.240;2022-12-24T08:47:46;100941.0;;;11.27;86.34
50652;BME280;61429;52.086;5.240;2022-12-24T08:50:59;100943.0;;;11.37;86.29
50652;BME280;61429;52.086;5.240;2022-12-24T08:52:35;100942.0;;;11.28;86.58
50652;BME280;61429;52.086;5.240;2022-12-24T08:54:11;100945.0;;;11.31;86.32
50652;BME280;61429;52.086;5.240;2022-12-24T08:55:47;100945.0;;;11.25;86.46
50652;BME280;61429;52.086;5.240;2022-12-24T08:59:00;100955.0;;;11.18;86.69
50652;BME280;61429;52.086;5.240;2022-12-24T09:00:36;100952.0;;;11.08;87.32
50652;BME280;61429;52.086;5.240;2022-12-24T09:02:13;100958.0;;;11.05;87.78
50652;BME280;61429;52.086;5.240;2022-12-24T09:05:26;100960.0;;;11.27;87.12
50652;BME280;61429;52.086;5.240;2022-12-24T09:07:02;100963.0;;;11.15;87.56
50652;BME280;61429;52.086;5.240;2022-12-24T09:08:38;100965.0;;;11.23;87.36
50652;BME280;61429;52.086;5.240;2022-12-24T09:10:15;100970.0;;;11.27;86.76
50652;BME280;61429;52.086;5.240;2022-12-24T09:13:27;100976.0;;;11.33;86.83
50652;BME280;61429;52.086;5.240;2022-12-24T09:15:04;100981.0;;;11.42;86.54
50652;BME280;61429;52.086;5.240;2022-12-24T09:16:42;100982.0;;;11.42;86.4
50652;BME280;61429;52.086;5.240;2022-12-24T09:19:54;100985.0;;;11.39;86.66
50652;BME280;61429;52.086;5.240;2022-12-24T09:21:30;100989.0;;;11.58;85.61
50652;BME280;61429;52.086;5.240;2022-12-24T09:23:06;100993.0;;;11.51;85.83
50652;BME280;61429;52.086;5.240;2022-12-24T09:26:20;100996.0;;;11.5;85.99
50652;BME280;61429;52.086;5.240;2022-12-24T09:27:58;100999.0;;;11.54;85.94
50652;BME280;61429;52.086;5.240;2022-12-24T09:29:34;100998.0;;;11.71;85.25
50652;BME280;61429;52.086;5.240;2022-12-24T09:31:11;100999.0;;;11.66;85.22
50652;BME280;61429;52.086;5.240;2022-12-24T09:34:26;101002.0;;;11.53;84.96
50652;BME280;61429;52.086;5.240;2022-12-24T09:36:03;101006.0;;;11.57;85.07
50652;BME280;61429;52.086;5.240;2022-12-24T09:37:41;101011.0;;;11.64;84.92
50652;BME280;61429;52.086;5.240;2022-12-24T09:40:54;101013.0;;;11.58;84.56
50652;BME280;61429;52.086;5.240;2022-12-24T09:42:45;101024.0;;;11.74;84.53
50652;BME280;61429;52.086;5.240;2022-12-24T09:44:33;101018.0;;;11.78;84.12
50652;BME280;61429;52.086;5.240;2022-12-24T09:46:20;101024.0;;;11.64;84.45
50652;BME280;61429;52.086;5.240;2022-12-24T09:48:01;101026.0;;;11.65;84.63
50652;BME280;61429;52.086;5.240;2022-12-24T09:51:26;101026.0;;;11.61;84.7
50652;BME280;61429;52.086;5.240;2022-12-24T09:53:12;101025.0;;;11.68;84.49
50652;BME280;61429;52.086;5.240;2022-12-24T09:55:06;101028.0;;;11.67;84.42
50652;BME280;61429;52.086;5.240;2022-12-24T09:56:45;101028.0;;;11.86;83.86
50652;BME280;61429;52.086;5.240;2022-12-24T09:58:24;101035.0;;;11.91;83.51
50652;BME280;61429;52.086;5.240;2022-12-24T10:01:54;101039.0;;;11.94;83.1
50652;BME280;61429;52.086;5.240;2022-12-24T10:03:30;101041.0;;;11.91;83.46
50652;BME280;61429;52.086;5.240;2022-12-24T10:05:12;101039.0;;;11.78;83.6
50652;BME280;61429;52.086;5.240;2022-12-24T10:06:54;101040.0;;;11.83;83.53
50652;BME280;61429;52.086;5.240;2022-12-24T10:10:33;101041.0;;;11.82;83.6
50652;BME280;61429;52.086;5.240;2022-12-24T10:12:17;101044.0;;;11.81;83.84
50652;BME280;61429;52.086;5.240;2022-12-24T10:14:07;101046.0;;;11.92;83.03
50652;BME280;61429;52.086;5.240;2022-12-24T10:15:53;101048.0;;;11.92;82.83
50652;BME280;61429;52.086;5.240;2022-12-24T10:17:43;101046.0;;;11.7;83.42
50652;BME280;61429;52.086;5.240;2022-12-24T10:19:36;101048.0;;;11.88;83.09
50652;BME280;61429;52.086;5.240;2022-12-24T10:23:16;101057.0;;;11.98;82.92
50652;BME280;61429;52.086;5.240;2022-12-24T10:24:59;101048.0;;;11.92;82.85
50652;BME280;61429;52.086;5.240;2022-12-24T10:26:43;101047.0;;;11.93;82.81
50652;BME280;61429;52.086;5.240;2022-12-24T10:28:31;101051.0;;;11.86;82.55
50652;BME280;61429;52.086;5.240;2022-12-24T10:30:18;101045.0;;;11.83;83.2
50652;BME280;61429;52.086;5.240;2022-12-24T10:32:03;101045.0;;;11.85;83.24
50652;BME280;61429;52.086;5.240;2022-12-24T10:35:33;101050.0;;;11.79;83.48
50652;BME280;61429;52.086;5.240;2022-12-24T10:37:19;101049.0;;;11.96;82.9
50652;BME280;61429;52.086;5.240;2022-12-24T10:38:58;101049.0;;;11.89;83.27
50652;BME280;61429;52.086;5.240;2022-12-24T10:40:39;101057.0;;;12.12;82.53
50652;BME280;61429;52.086;5.240;2022-12-24T10:42:19;101058.0;;;11.83;83.7
50652;BME280;61429;52.086;5.240;2022-12-24T10:45:38;101061.0;;;11.85;83.93
50652;BME280;61429;52.086;5.240;2022-12-24T10:47:20;101060.0;;;12.03;83.3
50652;BME280;61429;52.086;5.240;2022-12-24T10:49:00;101058.0;;;11.94;83.4
50652;BME280;61429;52.086;5.240;2022-12-24T10:52:20;101057.0;;;12.05;82.92
50652;BME280;61429;52.086;5.240;2022-12-24T10:54:00;101059.0;;;11.98;82.87
50652;BME280;61429;52.086;5.240;2022-12-24T10:55:41;101055.0;;;12.09;82.72
50652;BME280;61429;52.086;5.240;2022-12-24T10:57:23;101060.0;;;12.09;82.38
50652;BME280;61429;52.086;5.240;2022-12-24T10:59:00;101064.0;;;12.16;82.02
50652;BME280;61429;52.086;5.240;2022-12-24T11:02:27;101062.0;;;12.1;82.36
50652;BME280;61429;52.086;5.240;2022-12-24T11:04:04;101071.0;;;12.07;82.38
50652;BME280;61429;52.086;5.240;2022-12-24T11:05:40;101072.0;;;12.11;82.05
50652;BME280;61429;52.086;5.240;2022-12-24T11:09:11;101069.0;;;12.07;82.07
50652;BME280;61429;52.086;5.240;2022-12-24T11:10:57;101063.0;;;12.23;81.7
50652;BME280;61429;52.086;5.240;2022-12-24T11:12:36;101062.0;;;12.24;81.55
50652;BME280;61429;52.086;5.240;2022-12-24T11:14:17;101061.0;;;12.37;80.66
50652;BME280;61429;52.086;5.240;2022-12-24T11:19:17;101059.0;;;12.43;79.55
50652;BME280;61429;52.086;5.240;2022-12-24T11:20:57;101060.0;;;12.16;80.27
50652;BME280;61429;52.086;5.240;2022-12-24T11:22:34;101063.0;;;12.27;79.11
50652;BME280;61429;52.086;5.240;2022-12-24T11:24:22;101063.0;;;12.19;78.64
50652;BME280;61429;52.086;5.240;2022-12-24T11:27:40;101067.0;;;12.04;78.91
50652;BME280;61429;52.086;5.240;2022-12-24T11:29:19;101064.0;;;12.03;79.19
50652;BME280;61429;52.086;5.240;2022-12-24T11:31:03;101075.0;;;12.1;78.41
50652;BME280;61429;52.086;5.240;2022-12-24T11:32:41;101077.0;;;12.03;78.42
50652;BME280;61429;52.086;5.240;2022-12-24T11:36:05;101075.0;;;11.99;78.47
50652;BME280;61429;52.086;5.240;2022-12-24T11:37:48;101074.0;;;12.0;77.88
50652;BME280;61429;52.086;5.240;2022-12-24T11:39:45;101076.0;;;12.24;77.37
50652;BME280;61429;52.086;5.240;2022-12-24T11:41:25;101080.0;;;12.46;76.75
50652;BME280;61429;52.086;5.240;2022-12-24T11:44:45;101081.0;;;12.25;76.97
50652;BME280;61429;52.086;5.240;2022-12-24T11:46:41;101080.0;;;12.43;76.47
50652;BME280;61429;52.086;5.240;2022-12-24T11:48:24;101078.0;;;12.47;76.81
50652;BME280;61429;52.086;5.240;2022-12-24T11:50:19;101090.0;;;12.42;76.49
50652;BME280;61429;52.086;5.240;2022-12-24T11:52:22;101087.0;;;12.36;76.19
50652;BME280;61429;52.086;5.240;2022-12-24T11:54:15;101089.0;;;12.07;76.77
50652;BME280;61429;52.086;5.240;2022-12-24T11:55:56;101095.0;;;12.1;76.33
50652;BME280;61429;52.086;5.240;2022-12-24T11:57:42;101092.0;;;12.39;75.49
50652;BME280;61429;52.086;5.240;2022-12-24T12:01:13;101093.0;;;12.24;76.02
50652;BME280;61429;52.086;5.240;2022-12-24T12:02:59;101095.0;;;12.5;75.52
50652;BME280;61429;52.086;5.240;2022-12-24T12:04:39;101089.0;;;12.48;75.25
50652;BME280;61429;52.086;5.240;2022-12-24T12:06:25;101095.0;;;12.17;75.49
50652;BME280;61429;52.086;5.240;2022-12-24T12:09:54;101095.0;;;12.28;75.86
50652;BME280;61429;52.086;5.240;2022-12-24T12:11:34;101098.0;;;11.96;75.94
50652;BME280;61429;52.086;5.240;2022-12-24T12:13:16;101100.0;;;12.01;76.34
50652;BME280;61429;52.086;5.240;2022-12-24T12:14:59;101098.0;;;12.26;75.69
50652;BME280;61429;52.086;5.240;2022-12-24T12:16:44;101105.0;;;12.32;76.52
50652;BME280;61429;52.086;5.240;2022-12-24T12:20:13;101111.0;;;12.36;76.23
50652;BME280;61429;52.086;5.240;2022-12-24T12:21:51;101113.0;;;12.42;76.19
50652;BME280;61429;52.086;5.240;2022-12-24T12:23:29;101114.0;;;12.29;76.47
50652;BME280;61429;52.086;5.240;2022-12-24T12:25:17;101117.0;;;12.18;77.22
50652;BME280;61429;52.086;5.240;2022-12-24T12:27:04;101119.0;;;12.41;76.08
50652;BME280;61429;52.086;5.240;2022-12-24T12:30:36;101116.0;;;12.54;75.69
50652;BME280;61429;52.086;5.240;2022-12-24T12:32:25;101113.0;;;12.34;76.09
50652;BME280;61429;52.086;5.240;2022-12-24T12:34:11;101117.0;;;12.47;75.42
50652;BME280;61429;52.086;5.240;2022-12-24T12:35:51;101121.0;;;12.32;75.74
50652;BME280;61429;52.086;5.240;2022-12-24T12:37:34;101124.0;;;12.22;75.64
50652;BME280;61429;52.086;5.240;2022-12-24T12:41:00;101126.0;;;12.22;75.52
50652;BME280;61429;52.086;5.240;2022-12-24T12:42:51;101128.0;;;12.35;75.37
50652;BME280;61429;52.086;5.240;2022-12-24T12:44:50;101128.0;;;12.23;76.05
50652;BME280;61429;52.086;5.240;2022-12-24T12:46:41;101131.0;;;12.31;75.86
50652;BME280;61429;52.086;5.240;2022-12-24T12:48:40;101134.0;;;12.19;76.72
50652;BME280;61429;52.086;5.240;2022-12-24T12:50:25;101137.0;;;11.99;76.5
50652;BME280;61429;52.086;5.240;2022-12-24T12:52:14;101135.0;;;11.99;77.19
50652;BME280;61429;52.086;5.240;2022-12-24T12:56:00;101135.0;;;12.21;76.97
50652;BME280;61429;52.086;5.240;2022-12-24T12:57:43;101142.0;;;12.22;76.34
50652;BME280;61429;52.086;5.240;2022-12-24T12:59:32;101142.0;;;12.14;76.27
50652;BME280;61429;52.086;5.240;2022-12-24T13:01:13;101140.0;;;12.13;76.38
50652;BME280;61429;52.086;5.240;2022-12-24T13:03:08;101138.0;;;12.08;76.49
50652;BME280;61429;52.086;5.240;2022-12-24T13:05:22;101149.0;;;12.03;76.72
50652;BME280;61429;52.086;5.240;2022-12-24T13:07:42;101151.0;;;12.1;76.27
50652;BME280;61429;52.086;5.240;2022-12-24T13:10:05;101149.0;;;12.1;76.47
50652;BME280;61429;52.086;5.240;2022-12-24T13:12:26;101150.0;;;12.09;75.69
50652;BME280;61429;52.086;5.240;2022-12-24T13:14:26;101155.0;;;11.76;76.86
50652;BME280;61429;52.086;5.240;2022-12-24T13:16:31;101146.0;;;12.05;76.41
50652;BME280;61429;52.086;5.240;2022-12-24T13:20:19;101141.0;;;11.98;76.63
50652;BME280;61429;52.086;5.240;2022-12-24T13:21:56;101150.0;;;11.98;76.13
50652;BME280;61429;52.086;5.240;2022-12-24T13:23:32;101152.0;;;11.95;76.28
50652;BME280;61429;52.086;5.240;2022-12-24T13:27:05;101147.0;;;12.25;75.74
50652;BME280;61429;52.086;5.240;2022-12-24T13:28:47;101159.0;;;12.19;76.22
50652;BME280;61429;52.086;5.240;2022-12-24T13:30:34;101156.0;;;12.33;75.52
50652;BME280;61429;52.086;5.240;2022-12-24T13:32:45;101162.0;;;12.07;76.39
50652;BME280;61429;52.086;5.240;2022-12-24T13:36:13;101168.0;;;12.33;75.58
50652;BME280;61429;52.086;5.240;2022-12-24T13:40:00;101169.0;;;12.28;75.41
50652;BME280;61429;52.086;5.240;2022-12-24T13:41:48;101176.0;;;12.38;75.08
50652;BME280;61429;52.086;5.240;2022-12-24T13:44:00;101180.0;;;12.44;74.37
50652;BME280;61429;52.086;5.240;2022-12-24T13:45:47;101178.0;;;12.53;74.44
50652;BME280;61429;52.086;5.240;2022-12-24T13:47:24;101181.0;;;12.44;75.0
50652;BME280;61429;52.086;5.240;2022-12-24T13:49:10;101184.0;;;12.44;74.17
50652;BME280;61429;52.086;5.240;2022-12-24T13:50:48;101187.0;;;12.33;74.45
50652;BME280;61429;52.086;5.240;2022-12-24T13:54:09;101190.0;;;12.23;75.03
50652;BME280;61429;52.086;5.240;2022-12-24T13:55:50;101191.0;;;12.44;74.38
50652;BME280;61429;52.086;5.240;2022-12-24T13:57:31;101190.0;;;12.56;74.31
50652;BME280;61429;52.086;5.240;2022-12-24T13:59:23;101190.0;;;12.48;73.78
50652;BME280;61429;52.086;5.240;2022-12-24T14:01:09;101188.0;;;12.52;73.98
50652;BME280;61429;52.086;5.240;2022-12-24T14:04:30;101186.0;;;12.34;73.92
50652;BME280;61429;52.086;5.240;2022-12-24T14:06:20;101186.0;;;12.46;73.55
50652;BME280;61429;52.086;5.240;2022-12-24T14:07:58;101191.0;;;12.24;74.2
50652;BME280;61429;52.086;5.240;2022-12-24T14:09:36;101189.0;;;12.57;73.69
50652;BME280;61429;52.086;5.240;2022-12-24T14:12:53;101192.0;;;12.52;73.72
50652;BME280;61429;52.086;5.240;2022-12-24T14:14:33;101202.0;;;12.53;74.37
50652;BME280;61429;52.086;5.240;2022-12-24T14:16:13;101200.0;;;12.52;74.7
50652;BME280;61429;52.086;5.240;2022-12-24T14:17:50;101202.0;;;12.6;74.27
50652;BME280;61429;52.086;5.240;2022-12-24T14:21:15;101203.0;;;12.61;74.28
50652;BME280;61429;52.086;5.240;2022-12-24T14:22:52;101209.0;;;12.68;74.16
50652;BME280;61429;52.086;5.240;2022-12-24T14:24:32;101207.0;;;12.79;73.86
50652;BME280;61429;52.086;5.240;2022-12-24T14:26:13;101209.0;;;12.73;74.52
50652;BME280;61429;52.086;5.240;2022-12-24T14:29:45;101209.0;;;12.75;74.06
50652;BME280;61429;52.086;5.240;2022-12-24T14:31:25;101202.0;;;12.7;74.17
50652;BME280;61429;52.086;5.240;2022-12-24T14:33:01;101212.0;;;12.68;74.19
50652;BME280;61429;52.086;5.240;2022-12-24T14:34:37;101211.0;;;12.66;73.69
50652;BME280;61429;52.086;5.240;2022-12-24T14:38:00;101211.0;;;12.53;74.0
50652;BME280;61429;52.086;5.240;2022-12-24T14:39:41;101221.0;;;12.57;74.22
50652;BME280;61429;52.086;5.240;2022-12-24T14:41:29;101219.0;;;12.66;73.83
50652;BME280;61429;52.086;5.240;2022-12-24T14:43:26;101225.0;;;12.71;73.97
50652;BME280;61429;52.086;5.240;2022-12-24T14:45:17;101227.0;;;12.75;73.94
50652;BME280;61429;52.086;5.240;2022-12-24T14:48:46;101233.0;;;12.68;73.99
50652;BME280;61429;52.086;5.240;2022-12-24T14:50:38;101232.0;;;12.63;74.56
50652;BME280;61429;52.086;5.240;2022-12-24T14:52:51;101231.0;;;12.59;74.74
50652;BME280;61429;52.086;5.240;2022-12-24T14:54:36;101235.0;;;12.69;74.53
50652;BME280;61429;52.086;5.240;2022-12-24T14:56:15;101233.0;;;12.61;74.73
50652;BME280;61429;52.086;5.240;2022-12-24T14:58:17;101241.0;;;12.8;74.27
50652;BME280;61429;52.086;5.240;2022-12-24T15:00:00;101245.0;;;12.82;74.13
50652;BME280;61429;52.086;5.240;2022-12-24T15:03:15;101242.0;;;12.54;75.44
50652;BME280;61429;52.086;5.240;2022-12-24T15:05:25;101249.0;;;12.61;75.16
50652;BME280;61429;52.086;5.240;2022-12-24T15:07:03;101255.0;;;12.56;75.19
50652;BME280;61429;52.086;5.240;2022-12-24T15:08:44;101256.0;;;12.52;75.3
50652;BME280;61429;52.086;5.240;2022-12-24T15:10:27;101261.0;;;12.46;75.5
50652;BME280;61429;52.086;5.240;2022-12-24T15:13:43;101260.0;;;12.48;75.72
50652;BME280;61429;52.086;5.240;2022-12-24T15:15:20;101263.0;;;12.45;75.64
50652;BME280;61429;52.086;5.240;2022-12-24T15:16:59;101262.0;;;12.48;75.33
50652;BME280;61429;52.086;5.240;2022-12-24T15:18:42;101259.0;;;12.38;75.89
50652;BME280;61429;52.086;5.240;2022-12-24T15:22:07;101259.0;;;12.37;75.8
50652;BME280;61429;52.086;5.240;2022-12-24T15:23:47;101258.0;;;12.24;76.55
50652;BME280;61429;52.086;5.240;2022-12-24T15:25:29;101265.0;;;12.16;76.94
50652;BME280;61429;52.086;5.240;2022-12-24T15:27:14;101264.0;;;12.28;76.34
50652;BME280;61429;52.086;5.240;2022-12-24T15:30:29;101266.0;;;12.14;76.95
50652;BME280;61429;52.086;5.240;2022-12-24T15:32:10;101275.0;;;12.14;77.11
50652;BME280;61429;52.086;5.240;2022-12-24T15:33:51;101275.0;;;12.17;77.19
50652;BME280;61429;52.086;5.240;2022-12-24T15:35:34;101281.0;;;12.07;77.78
50652;BME280;61429;52.086;5.240;2022-12-24T15:37:20;101282.0;;;12.05;77.91
50652;BME280;61429;52.086;5.240;2022-12-24T15:40:36;101286.0;;;12.02;78.02
50652;BME280;61429;52.086;5.240;2022-12-24T15:42:16;101289.0;;;12.02;77.7
50652;BME280;61429;52.086;5.240;2022-12-24T15:43:59;101284.0;;;11.91;78.3
50652;BME280;61429;52.086;5.240;2022-12-24T15:45:41;101287.0;;;12.0;77.98
50652;BME280;61429;52.086;5.240;2022-12-24T15:49:02;101294.0;;;11.94;78.16
50652;BME280;61429;52.086;5.240;2022-12-24T15:50:43;101285.0;;;11.86;78.33
50652;BME280;61429;52.086;5.240;2022-12-24T15:52:24;101290.0;;;11.85;78.61
50652;BME280;61429;52.086;5.240;2022-12-24T15:55:42;101292.0;;;11.82;78.81
50652;BME280;61429;52.086;5.240;2022-12-24T15:57:22;101298.0;;;11.74;79.16
50652;BME280;61429;52.086;5.240;2022-12-24T15:59:33;101300.0;;;11.73;79.36
50652;BME280;61429;52.086;5.240;2022-12-24T16:01:27;101300.0;;;11.71;79.24
50652;BME280;61429;52.086;5.240;2022-12-24T16:04:53;101302.0;;;11.61;79.66
50652;BME280;61429;52.086;5.240;2022-12-24T16:08:28;101306.0;;;11.55;79.92
50652;BME280;61429;52.086;5.240;2022-12-24T16:10:22;101307.0;;;11.58;80.02
50652;BME280;61429;52.086;5.240;2022-12-24T16:11:59;101305.0;;;11.44;80.39
50652;BME280;61429;52.086;5.240;2022-12-24T16:13:38;101306.0;;;11.43;80.5
50652;BME280;61429;52.086;5.240;2022-12-24T16:15:16;101305.0;;;11.42;80.53
50652;BME280;61429;52.086;5.240;2022-12-24T16:18:32;101303.0;;;11.35;80.88
50652;BME280;61429;52.086;5.240;2022-12-24T16:20:17;101300.0;;;11.27;81.27
50652;BME280;61429;52.086;5.240;2022-12-24T16:21:57;101297.0;;;11.24;81.37
50652;BME280;61429;52.086;5.240;2022-12-24T16:23:38;101293.0;;;11.25;81.52
50652;BME280;61429;52.086;5.240;2022-12-24T16:25:23;101296.0;;;11.23;81.45
50652;BME280;61429;52.086;5.240;2022-12-24T16:28:36;101297.0;;;11.12;81.69
50652;BME280;61429;52.086;5.240;2022-12-24T16:30:13;101298.0;;;11.16;81.87
50652;BME280;61429;52.086;5.240;2022-12-24T16:33:28;101296.0;;;11.12;81.77
50652;BME280;61429;52.086;5.240;2022-12-24T16:35:10;101293.0;;;11.07;81.69
50652;BME280;61429;52.086;5.240;2022-12-24T16:36:53;101299.0;;;11.02;81.95
50652;BME280;61429;52.086;5.240;2022-12-24T16:38:30;101299.0;;;10.97;81.97
50652;BME280;61429;52.086;5.240;2022-12-24T16:40:11;101305.0;;;10.9;82.33
50652;BME280;61429;52.086;5.240;2022-12-24T16:43:24;101310.0;;;10.85;82.34
50652;BME280;61429;52.086;5.240;2022-12-24T16:45:01;101310.0;;;10.79;82.62
50652;BME280;61429;52.086;5.240;2022-12-24T16:46:38;101311.0;;;10.84;82.48
50652;BME280;61429;52.086;5.240;2022-12-24T16:49:56;101316.0;;;10.86;82.2
50652;BME280;61429;52.086;5.240;2022-12-24T16:51:33;101314.0;;;10.68;83.2
50652;BME280;61429;52.086;5.240;2022-12-24T16:53:11;101311.0;;;10.63;83.12
50652;BME280;61429;52.086;5.240;2022-12-24T16:54:49;101306.0;;;10.8;82.57
50652;BME280;61429;52.086;5.240;2022-12-24T16:58:01;101307.0;;;10.72;82.79
50652;BME280;61429;52.086;5.240;2022-12-24T16:59:38;101314.0;;;10.8;82.56
50652;BME280;61429;52.086;5.240;2022-12-24T17:01:14;101310.0;;;10.77;82.52
50652;BME280;61429;52.086;5.240;2022-12-24T17:04:30;101313.0;;;10.66;82.56
50652;BME280;61429;52.086;5.240;2022-12-24T17:06:06;101310.0;;;10.55;83.37
50652;BME280;61429;52.086;5.240;2022-12-24T17:07:42;101309.0;;;10.43;83.54
50652;BME280;61429;52.086;5.240;2022-12-24T17:09:18;101313.0;;;10.49;83.36
50652;BME280;61429;52.086;5.240;2022-12-24T17:12:30;101310.0;;;10.55;83.05
50652;BME280;61429;52.086;5.240;2022-12-24T17:14:09;101315.0;;;10.54;83.1
50652;BME280;61429;52.086;5.240;2022-12-24T17:15:46;101316.0;;;10.49;83.27
50652;BME280;61429;52.086;5.240;2022-12-24T17:19:00;101313.0;;;10.47;83.23
50652;BME280;61429;52.086;5.240;2022-12-24T17:20:36;101308.0;;;10.35;83.54
50652;BME280;61429;52.086;5.240;2022-12-24T17:22:13;101306.0;;;10.33;83.72
50652;BME280;61429;52.086;5.240;2022-12-24T17:25:25;101306.0;;;10.38;83.4
50652;BME280;61429;52.086;5.240;2022-12-24T17:27:01;101307.0;;;10.36;83.59
50652;BME280;61429;52.086;5.240;2022-12-24T17:28:39;101313.0;;;10.29;83.56
50652;BME280;61429;52.086;5.240;2022-12-24T17:30:16;101312.0;;;10.18;84.13
50652;BME280;61429;52.086;5.240;2022-12-24T17:33:28;101302.0;;;10.18;84.15
50652;BME280;61429;52.086;5.240;2022-12-24T17:35:05;101309.0;;;10.11;84.52
50652;BME280;61429;52.086;5.240;2022-12-24T17:36:42;101302.0;;;10.16;84.33
50652;BME280;61429;52.086;5.240;2022-12-24T17:39:55;101302.0;;;10.08;84.49